createdAt,value
2023-06-04T00:00:14.735Z,449.0000
2023-06-04T00:01:17.233Z,449.0000
2023-06-04T00:02:19.320Z,448.0000
2023-06-04T00:03:21.482Z,448.0000
2023-06-04T00:04:23.583Z,447.0000
2023-06-04T00:05:25.688Z,444.0000
2023-06-04T00:06:27.856Z,442.0000
2023-06-04T00:07:30.053Z,442.0000
2023-06-04T00:08:32.129Z,442.0000
2023-06-04T00:09:34.262Z,442.0000
2023-06-04T00:10:36.446Z,442.0000
2023-06-04T00:11:38.661Z,442.0000
2023-06-04T00:12:40.761Z,442.0000
2023-06-04T00:13:42.942Z,446.0000
2023-06-04T00:14:45.093Z,448.0000
2023-06-04T00:15:47.281Z,449.0000
2023-06-04T00:16:49.476Z,449.0000
2023-06-04T00:17:51.675Z,449.0000
2023-06-04T00:18:53.766Z,450.0000
2023-06-04T00:19:55.879Z,450.0000
2023-06-04T00:20:58.097Z,450.0000
2023-06-04T00:22:00.219Z,451.0000
2023-06-04T00:23:00.253Z,451.0000
2023-06-04T00:24:02.417Z,449.0000
2023-06-04T00:25:04.493Z,448.0000
2023-06-04T00:26:06.648Z,447.0000
2023-06-04T00:27:08.803Z,450.0000
2023-06-04T00:28:11.008Z,450.0000
2023-06-04T00:29:13.145Z,450.0000
2023-06-04T00:30:15.297Z,451.0000
2023-06-04T00:31:17.537Z,451.0000
2023-06-04T00:32:19.627Z,451.0000
2023-06-04T00:33:21.799Z,450.0000
2023-06-04T00:34:23.933Z,451.0000
2023-06-04T00:35:26.093Z,451.0000
2023-06-04T00:36:28.271Z,449.0000
2023-06-04T00:37:30.426Z,449.0000
2023-06-04T00:38:32.652Z,449.0000
2023-06-04T00:39:34.775Z,449.0000
2023-06-04T00:40:36.954Z,448.0000
2023-06-04T00:41:39.113Z,448.0000
2023-06-04T00:42:41.293Z,449.0000
2023-06-04T00:43:43.476Z,446.0000
2023-06-04T00:44:45.639Z,448.0000
2023-06-04T00:45:47.851Z,451.0000
2023-06-04T00:46:49.951Z,447.0000
2023-06-04T00:47:52.102Z,449.0000
2023-06-04T00:48:54.273Z,448.0000
2023-06-04T00:49:56.388Z,447.0000
2023-06-04T00:50:58.568Z,450.0000
2023-06-04T00:52:00.706Z,450.0000
2023-06-04T00:53:02.889Z,448.0000
2023-06-04T00:54:05.035Z,447.0000
2023-06-04T00:55:07.121Z,448.0000
2023-06-04T00:56:07.107Z,446.0000
2023-06-04T00:57:09.242Z,447.0000
2023-06-04T00:58:11.391Z,449.0000
2023-06-04T00:59:13.642Z,451.0000
2023-06-04T01:00:15.803Z,449.0000
2023-06-04T01:01:18.074Z,452.0000
2023-06-04T01:02:20.279Z,453.0000
2023-06-04T01:03:22.452Z,451.0000
2023-06-04T01:04:24.633Z,451.0000
2023-06-04T01:05:26.848Z,450.0000
2023-06-04T01:06:29.033Z,450.0000
2023-06-04T01:07:31.106Z,452.0000
2023-06-04T01:08:31.076Z,450.0000
2023-06-04T01:09:33.241Z,452.0000
2023-06-04T01:10:35.290Z,453.0000
2023-06-04T01:11:37.405Z,453.0000
2023-06-04T01:12:39.517Z,449.0000
2023-06-04T01:13:41.644Z,447.0000
2023-06-04T01:14:43.882Z,446.0000
2023-06-04T01:15:45.824Z,444.0000
2023-06-04T01:16:47.923Z,449.0000
2023-06-04T01:17:50.014Z,447.0000
2023-06-04T01:18:52.097Z,449.0000
2023-06-04T01:19:54.248Z,451.0000
2023-06-04T01:20:56.349Z,450.0000
2023-06-04T01:21:58.493Z,450.0000
2023-06-04T01:23:00.613Z,450.0000
2023-06-04T01:24:02.930Z,452.0000
2023-06-04T01:25:04.825Z,451.0000
2023-06-04T01:26:06.929Z,452.0000
2023-06-04T01:27:09.049Z,450.0000
2023-06-04T01:28:11.235Z,447.0000
2023-06-04T01:29:13.303Z,448.0000
2023-06-04T01:30:15.422Z,449.0000
2023-06-04T01:31:15.523Z,450.0000
2023-06-04T01:32:17.522Z,449.0000
2023-06-04T01:33:19.717Z,451.0000
2023-06-04T01:34:21.941Z,451.0000
2023-06-04T01:35:25.982Z,453.0000
2023-06-04T01:36:26.368Z,448.0000
2023-06-04T01:37:28.586Z,449.0000
2023-06-04T01:38:30.802Z,445.0000
2023-06-04T01:39:32.994Z,448.0000
2023-06-04T01:40:35.261Z,451.0000
2023-06-04T01:41:37.407Z,453.0000
2023-06-04T01:42:39.628Z,455.0000
2023-06-04T01:43:41.844Z,455.0000
2023-06-04T01:44:44.105Z,456.0000
2023-06-04T01:45:46.337Z,453.0000
2023-06-04T01:46:48.629Z,454.0000
2023-06-04T01:47:50.834Z,452.0000
2023-06-04T01:48:53.017Z,450.0000
2023-06-04T01:49:55.230Z,453.0000
2023-06-04T01:50:57.511Z,455.0000
2023-06-04T01:51:59.682Z,453.0000
2023-06-04T01:53:01.863Z,453.0000
2023-06-04T01:54:04.007Z,451.0000
2023-06-04T01:55:06.204Z,450.0000
2023-06-04T01:56:08.419Z,451.0000
2023-06-04T01:57:10.570Z,451.0000
2023-06-04T01:58:12.758Z,449.0000
2023-06-04T01:59:14.956Z,450.0000
2023-06-04T02:00:17.110Z,452.0000
2023-06-04T02:01:19.342Z,451.0000
2023-06-04T02:02:21.542Z,450.0000
2023-06-04T02:03:21.693Z,448.0000
2023-06-04T02:04:23.864Z,448.0000
2023-06-04T02:05:26.086Z,451.0000
2023-06-04T02:06:28.288Z,450.0000
2023-06-04T02:08:19.829Z,446.0000
2023-06-04T02:09:21.853Z,450.0000
2023-06-04T02:10:23.864Z,451.0000
2023-06-04T02:11:25.861Z,455.0000
2023-06-04T02:12:27.899Z,459.0000
2023-06-04T02:13:29.948Z,462.0000
2023-06-04T02:14:32.084Z,461.0000
2023-06-04T02:15:34.215Z,461.0000
2023-06-04T02:16:36.386Z,460.0000
2023-06-04T02:17:38.639Z,458.0000
2023-06-04T02:18:40.623Z,457.0000
2023-06-04T02:19:42.709Z,457.0000
2023-06-04T02:20:42.650Z,457.0000
2023-06-04T02:21:44.797Z,457.0000
2023-06-04T02:22:46.947Z,457.0000
2023-06-04T02:23:49.145Z,457.0000
2023-06-04T02:24:51.153Z,455.0000
2023-06-04T02:25:53.277Z,451.0000
2023-06-04T02:26:55.403Z,450.0000
2023-06-04T02:27:57.699Z,449.0000
2023-06-04T02:28:59.699Z,448.0000
2023-06-04T02:30:01.833Z,449.0000
2023-06-04T02:31:03.927Z,446.0000
2023-06-04T02:32:06.120Z,446.0000
2023-06-04T02:33:08.311Z,448.0000
2023-06-04T02:34:10.405Z,451.0000
2023-06-04T02:35:12.626Z,452.0000
2023-06-04T02:37:42.866Z,457.0000
2023-06-04T02:38:45.003Z,454.0000
2023-06-04T02:39:47.085Z,452.0000
2023-06-04T02:40:49.239Z,452.0000
2023-06-04T02:41:51.365Z,452.0000
2023-06-04T02:42:53.500Z,453.0000
2023-06-04T02:43:55.636Z,455.0000
2023-06-04T02:44:57.746Z,459.0000
2023-06-04T02:45:57.778Z,459.0000
2023-06-04T02:46:59.850Z,458.0000
2023-06-04T02:48:02.085Z,459.0000
2023-06-04T02:49:04.150Z,458.0000
2023-06-04T02:50:06.247Z,459.0000
2023-06-04T02:51:08.485Z,461.0000
2023-06-04T02:52:10.525Z,460.0000
2023-06-04T02:53:12.697Z,461.0000
2023-06-04T02:54:14.865Z,459.0000
2023-06-04T02:55:17.023Z,457.0000
2023-06-04T02:56:19.217Z,457.0000
2023-06-04T02:57:21.335Z,455.0000
2023-06-04T02:58:23.411Z,453.0000
2023-06-04T02:59:25.572Z,455.0000
2023-06-04T03:00:27.600Z,457.0000
2023-06-04T03:01:29.797Z,456.0000
2023-06-04T03:02:31.874Z,455.0000
2023-06-04T03:03:34.012Z,455.0000
2023-06-04T03:04:36.165Z,458.0000
2023-06-04T03:05:38.291Z,459.0000
2023-06-04T03:06:40.402Z,460.0000
2023-06-04T03:07:42.542Z,459.0000
2023-06-04T03:08:44.909Z,456.0000
2023-06-04T03:09:46.977Z,456.0000
2023-06-04T03:10:47.032Z,457.0000
2023-06-04T03:11:49.228Z,457.0000
2023-06-04T03:12:51.438Z,457.0000
2023-06-04T03:13:53.646Z,456.0000
2023-06-04T03:14:55.793Z,457.0000
2023-06-04T03:15:57.910Z,456.0000
2023-06-04T03:16:59.961Z,453.0000
2023-06-04T03:18:02.223Z,455.0000
2023-06-04T03:19:04.376Z,456.0000
2023-06-04T03:20:04.486Z,457.0000
2023-06-04T03:21:06.816Z,457.0000
2023-06-04T03:22:08.753Z,457.0000
2023-06-04T03:23:10.887Z,455.0000
2023-06-04T03:24:13.031Z,455.0000
2023-06-04T03:25:15.241Z,450.0000
2023-06-04T03:26:17.298Z,449.0000
2023-06-04T03:27:19.445Z,449.0000
2023-06-04T03:28:21.605Z,449.0000
2023-06-04T03:29:23.801Z,452.0000
2023-06-04T03:30:26.046Z,454.0000
2023-06-04T03:31:28.169Z,454.0000
2023-06-04T03:32:30.362Z,456.0000
2023-06-04T03:33:32.545Z,455.0000
2023-06-04T03:34:35.922Z,455.0000
2023-06-04T03:35:37.002Z,458.0000
2023-06-04T03:36:39.252Z,460.0000
2023-06-04T03:37:41.348Z,462.0000
2023-06-04T03:38:43.555Z,461.0000
2023-06-04T03:39:45.654Z,462.0000
2023-06-04T03:40:45.716Z,462.0000
2023-06-04T03:41:47.797Z,462.0000
2023-06-04T03:42:49.902Z,463.0000
2023-06-04T03:43:52.049Z,461.0000
2023-06-04T03:44:54.216Z,462.0000
2023-06-04T03:45:56.395Z,462.0000
2023-06-04T03:46:58.590Z,462.0000
2023-06-04T03:48:00.787Z,462.0000
2023-06-04T03:49:02.854Z,462.0000
2023-06-04T03:50:05.004Z,464.0000
2023-06-04T03:51:07.431Z,467.0000
2023-06-04T03:52:09.335Z,467.0000
2023-06-04T03:53:11.448Z,469.0000
2023-06-04T03:54:13.593Z,469.0000
2023-06-04T03:55:15.742Z,469.0000
2023-06-04T03:56:17.929Z,469.0000
2023-06-04T03:57:20.067Z,468.0000
2023-06-04T03:58:22.172Z,465.0000
2023-06-04T03:59:24.318Z,465.0000
2023-06-04T04:00:26.474Z,465.0000
2023-06-04T04:01:28.638Z,467.0000
2023-06-04T04:02:30.837Z,467.0000
2023-06-04T04:03:32.951Z,469.0000
2023-06-04T04:05:24.512Z,459.0000
2023-06-04T04:06:26.642Z,462.0000
2023-06-04T04:07:28.831Z,463.0000
2023-06-04T04:08:30.921Z,464.0000
2023-06-04T04:09:33.084Z,465.0000
2023-06-04T04:10:35.247Z,462.0000
2023-06-04T04:11:37.446Z,460.0000
2023-06-04T04:12:39.742Z,460.0000
2023-06-04T04:13:41.821Z,461.0000
2023-06-04T04:14:44.009Z,460.0000
2023-06-04T04:15:46.197Z,460.0000
2023-06-04T04:16:48.439Z,461.0000
2023-06-04T04:17:50.633Z,459.0000
2023-06-04T04:18:52.757Z,460.0000
2023-06-04T04:19:54.899Z,459.0000
2023-06-04T04:20:57.051Z,461.0000
2023-06-04T04:21:59.218Z,462.0000
2023-06-04T04:23:01.400Z,462.0000
2023-06-04T04:24:03.750Z,460.0000
2023-06-04T04:25:05.678Z,458.0000
2023-06-04T04:26:07.844Z,457.0000
2023-06-04T04:27:09.999Z,457.0000
2023-06-04T04:28:12.201Z,456.0000
2023-06-04T04:29:14.342Z,456.0000
2023-06-04T04:30:16.543Z,453.0000
2023-06-04T04:31:16.593Z,454.0000
2023-06-04T04:32:18.739Z,452.0000
2023-06-04T04:33:20.901Z,452.0000
2023-06-04T04:34:23.000Z,453.0000
2023-06-04T04:35:25.134Z,455.0000
2023-06-04T04:36:27.259Z,457.0000
2023-06-04T04:37:29.319Z,456.0000
2023-06-04T04:38:31.756Z,457.0000
2023-06-04T04:39:33.623Z,458.0000
2023-06-04T04:40:35.769Z,458.0000
2023-06-04T04:41:37.934Z,457.0000
2023-06-04T04:42:40.091Z,458.0000
2023-06-04T04:43:42.217Z,457.0000
2023-06-04T04:44:44.393Z,458.0000
2023-06-04T04:45:46.561Z,455.0000
2023-06-04T04:46:48.926Z,455.0000
2023-06-04T04:47:50.895Z,458.0000
2023-06-04T04:48:53.068Z,457.0000
2023-06-04T04:49:55.208Z,460.0000
2023-06-04T04:50:57.393Z,455.0000
2023-06-04T04:51:59.557Z,450.0000
2023-06-04T04:53:01.769Z,447.0000
2023-06-04T04:54:01.845Z,449.0000
2023-06-04T04:55:04.044Z,448.0000
2023-06-04T04:56:07.921Z,452.0000
2023-06-04T04:57:13.729Z,446.0000
2023-06-04T04:58:10.540Z,449.0000
2023-06-04T04:59:12.783Z,447.0000
2023-06-04T05:00:14.949Z,457.0000
2023-06-04T05:01:17.203Z,450.0000
2023-06-04T05:02:19.358Z,449.0000
2023-06-04T05:03:21.602Z,452.0000
2023-06-04T05:04:23.905Z,454.0000
2023-06-04T05:05:26.077Z,468.0000
2023-06-04T05:06:28.220Z,448.0000
2023-06-04T05:07:30.382Z,447.0000
2023-06-04T05:08:32.589Z,447.0000
2023-06-04T05:09:34.889Z,453.0000
2023-06-04T05:10:37.251Z,457.0000
2023-06-04T05:11:39.198Z,459.0000
2023-06-04T05:12:39.269Z,460.0000
2023-06-04T05:13:41.480Z,463.0000
2023-06-04T05:14:43.716Z,465.0000
2023-06-04T05:15:45.898Z,467.0000
2023-06-04T05:16:48.165Z,469.0000
2023-06-04T05:17:50.354Z,466.0000
2023-06-04T05:18:52.518Z,469.0000
2023-06-04T05:19:54.757Z,466.0000
2023-06-04T05:20:56.923Z,464.0000
2023-06-04T05:21:59.118Z,466.0000
2023-06-04T05:23:01.306Z,463.0000
2023-06-04T05:24:03.570Z,464.0000
2023-06-04T05:25:05.721Z,465.0000
2023-06-04T05:27:40.210Z,464.0000
2023-06-04T05:28:42.325Z,458.0000
2023-06-04T05:29:44.474Z,458.0000
2023-06-04T05:30:46.662Z,456.0000
2023-06-04T05:31:48.842Z,456.0000
2023-06-04T05:32:50.991Z,458.0000
2023-06-04T05:33:53.041Z,459.0000
2023-06-04T05:34:55.159Z,458.0000
2023-06-04T05:35:57.408Z,459.0000
2023-06-04T05:36:59.474Z,460.0000
2023-06-04T05:38:01.654Z,461.0000
2023-06-04T05:39:03.844Z,460.0000
2023-06-04T05:40:05.998Z,464.0000
2023-06-04T05:41:08.343Z,467.0000
2023-06-04T05:42:10.287Z,464.0000
2023-06-04T05:43:12.432Z,462.0000
2023-06-04T05:44:14.764Z,455.0000
2023-06-04T05:45:16.828Z,447.0000
2023-06-04T05:46:19.127Z,448.0000
2023-06-04T05:47:21.219Z,443.0000
2023-06-04T05:48:23.399Z,444.0000
2023-06-04T05:49:25.613Z,443.0000
2023-06-04T05:50:27.779Z,441.0000
2023-06-04T05:51:30.009Z,442.0000
2023-06-04T05:52:32.119Z,441.0000
2023-06-04T05:53:34.301Z,441.0000
2023-06-04T05:54:36.490Z,444.0000
2023-06-04T05:55:40.624Z,444.0000
2023-06-04T05:56:40.940Z,443.0000
2023-06-04T05:57:43.165Z,444.0000
2023-06-04T05:58:45.308Z,447.0000
2023-06-04T05:59:47.505Z,445.0000
2023-06-04T06:00:49.727Z,446.0000
2023-06-04T06:01:51.942Z,446.0000
2023-06-04T06:02:54.204Z,447.0000
2023-06-04T06:03:56.360Z,452.0000
2023-06-04T06:04:58.372Z,455.0000
2023-06-04T06:06:00.531Z,454.0000
2023-06-04T06:07:03.512Z,450.0000
2023-06-04T06:08:04.892Z,448.0000
2023-06-04T06:09:07.018Z,446.0000
2023-06-04T06:10:09.195Z,440.0000
2023-06-04T06:11:11.754Z,444.0000
2023-06-04T06:12:13.554Z,439.0000
2023-06-04T06:13:15.685Z,467.0000
2023-06-04T06:14:17.892Z,439.0000
2023-06-04T06:15:20.081Z,440.0000
2023-06-04T06:16:22.317Z,441.0000
2023-06-04T06:17:24.506Z,443.0000
2023-06-04T06:18:26.631Z,440.0000
2023-06-04T06:19:28.845Z,439.0000
2023-06-04T06:20:31.109Z,440.0000
2023-06-04T06:21:33.325Z,440.0000
2023-06-04T06:22:35.616Z,442.0000
2023-06-04T06:23:37.692Z,450.0000
2023-06-04T06:24:37.714Z,445.0000
2023-06-04T06:25:39.905Z,446.0000
2023-06-04T06:26:42.099Z,449.0000
2023-06-04T06:27:44.416Z,454.0000
2023-06-04T06:28:46.480Z,451.0000
2023-06-04T06:29:48.675Z,448.0000
2023-06-04T06:30:50.914Z,447.0000
2023-06-04T06:31:53.126Z,446.0000
2023-06-04T06:32:56.763Z,441.0000
2023-06-04T06:33:57.499Z,438.0000
2023-06-04T06:34:59.677Z,435.0000
2023-06-04T06:36:01.868Z,435.0000
2023-06-04T06:37:04.060Z,435.0000
2023-06-04T06:38:06.233Z,433.0000
2023-06-04T06:39:08.319Z,432.0000
2023-06-04T06:40:10.484Z,433.0000
2023-06-04T06:41:12.676Z,434.0000
2023-06-04T06:42:14.916Z,436.0000
2023-06-04T06:43:17.116Z,434.0000
2023-06-04T06:44:17.249Z,436.0000
2023-06-04T06:45:19.312Z,437.0000
2023-06-04T06:46:21.579Z,439.0000
2023-06-04T06:47:23.762Z,439.0000
2023-06-04T06:48:26.039Z,435.0000
2023-06-04T06:49:28.280Z,434.0000
2023-06-04T06:50:30.485Z,433.0000
2023-06-04T06:51:32.702Z,436.0000
2023-06-04T06:52:34.937Z,441.0000
2023-06-04T06:53:37.167Z,441.0000
2023-06-04T06:54:39.362Z,443.0000
2023-06-04T06:55:41.551Z,442.0000
2023-06-04T06:56:43.765Z,444.0000
2023-06-04T06:57:45.990Z,442.0000
2023-06-04T06:58:46.106Z,444.0000
2023-06-04T06:59:48.311Z,443.0000
2023-06-04T07:00:50.481Z,445.0000
2023-06-04T07:01:52.689Z,443.0000
2023-06-04T07:02:54.968Z,442.0000
2023-06-04T07:03:57.139Z,441.0000
2023-06-04T07:04:59.331Z,440.0000
2023-06-04T07:06:01.584Z,439.0000
2023-06-04T07:07:03.774Z,441.0000
2023-06-04T07:08:05.994Z,442.0000
2023-06-04T07:09:08.281Z,442.0000
2023-06-04T07:10:10.454Z,443.0000
2023-06-04T07:11:12.629Z,443.0000
2023-06-04T07:12:12.671Z,443.0000
2023-06-04T07:13:14.893Z,441.0000
2023-06-04T07:14:17.114Z,442.0000
2023-06-04T07:15:19.269Z,440.0000
2023-06-04T07:16:21.544Z,439.0000
2023-06-04T07:17:23.755Z,440.0000
2023-06-04T07:18:25.898Z,437.0000
2023-06-04T07:19:28.150Z,437.0000
2023-06-04T07:20:30.284Z,435.0000
2023-06-04T07:21:32.489Z,440.0000
2023-06-04T07:22:34.699Z,443.0000
2023-06-04T07:23:36.935Z,445.0000
2023-06-04T07:24:39.100Z,446.0000
2023-06-04T07:25:41.291Z,445.0000
2023-06-04T07:26:43.483Z,442.0000
2023-06-04T07:27:45.666Z,442.0000
2023-06-04T07:28:45.713Z,442.0000
2023-06-04T07:29:47.976Z,440.0000
2023-06-04T07:30:50.052Z,440.0000
2023-06-04T07:31:52.353Z,439.0000
2023-06-04T07:32:54.435Z,438.0000
2023-06-04T07:33:56.534Z,438.0000
2023-06-04T07:34:58.706Z,435.0000
2023-06-04T07:36:00.882Z,434.0000
2023-06-04T07:37:03.062Z,434.0000
2023-06-04T07:38:05.299Z,438.0000
2023-06-04T07:39:07.492Z,441.0000
2023-06-04T07:40:09.750Z,444.0000
2023-06-04T07:41:11.890Z,446.0000
2023-06-04T07:42:14.128Z,443.0000
2023-06-04T07:43:16.355Z,442.0000
2023-06-04T07:44:18.602Z,437.0000
2023-06-04T07:45:18.715Z,437.0000
2023-06-04T07:46:20.972Z,435.0000
2023-06-04T07:47:23.187Z,432.0000
2023-06-04T07:48:25.385Z,434.0000
2023-06-04T07:49:27.592Z,434.0000
2023-06-04T07:50:29.749Z,431.0000
2023-06-04T07:51:31.846Z,426.0000
2023-06-04T07:52:33.989Z,424.0000
2023-06-04T07:53:36.110Z,428.0000
2023-06-04T07:54:38.249Z,427.0000
2023-06-04T07:55:40.549Z,426.0000
2023-06-04T07:56:42.518Z,425.0000
2023-06-04T07:57:44.646Z,423.0000
2023-06-04T07:58:46.805Z,426.0000
2023-06-04T07:59:48.938Z,424.0000
2023-06-04T08:00:51.104Z,424.0000
2023-06-04T08:01:53.181Z,423.0000
2023-06-04T08:02:55.367Z,429.0000
2023-06-04T08:03:57.695Z,428.0000
2023-06-04T08:04:59.620Z,429.0000
2023-06-04T08:06:04.403Z,429.0000
2023-06-04T08:07:03.753Z,428.0000
2023-06-04T08:08:05.911Z,430.0000
2023-06-04T08:09:07.985Z,430.0000
2023-06-04T08:10:07.927Z,431.0000
2023-06-04T08:11:10.096Z,429.0000
2023-06-04T08:12:12.104Z,426.0000
2023-06-04T08:13:14.197Z,427.0000
2023-06-04T08:14:16.247Z,426.0000
2023-06-04T08:15:18.327Z,424.0000
2023-06-04T08:16:20.461Z,425.0000
2023-06-04T08:17:22.498Z,425.0000
2023-06-04T08:18:24.557Z,425.0000
2023-06-04T08:19:26.649Z,426.0000
2023-06-04T08:20:28.732Z,426.0000
2023-06-04T08:21:30.931Z,425.0000
2023-06-04T08:22:32.912Z,428.0000
2023-06-04T08:23:32.983Z,429.0000
2023-06-04T08:24:35.101Z,427.0000
2023-06-04T08:25:37.200Z,428.0000
2023-06-04T08:26:37.259Z,431.0000
2023-06-04T08:27:39.418Z,431.0000
2023-06-04T08:28:41.554Z,427.0000
2023-06-04T08:29:43.729Z,428.0000
2023-06-04T08:30:45.830Z,429.0000
2023-06-04T08:31:48.011Z,432.0000
2023-06-04T08:32:50.125Z,431.0000
2023-06-04T08:33:52.207Z,432.0000
2023-06-04T08:34:54.386Z,435.0000
2023-06-04T08:35:56.472Z,440.0000
2023-06-04T08:36:58.638Z,442.0000
2023-06-04T08:38:00.745Z,440.0000
2023-06-04T08:39:02.863Z,439.0000
2023-06-04T08:40:05.004Z,443.0000
2023-06-04T08:41:07.379Z,443.0000
2023-06-04T08:42:09.430Z,441.0000
2023-06-04T08:43:11.452Z,440.0000
2023-06-04T08:44:13.666Z,438.0000
2023-06-04T08:45:15.820Z,438.0000
2023-06-04T08:46:18.171Z,439.0000
2023-06-04T08:47:20.460Z,440.0000
2023-06-04T08:48:22.539Z,440.0000
2023-06-04T08:49:24.757Z,438.0000
2023-06-04T08:50:24.858Z,438.0000
2023-06-04T08:51:27.080Z,436.0000
2023-06-04T08:52:29.323Z,436.0000
2023-06-04T08:53:31.447Z,435.0000
2023-06-04T08:54:33.578Z,437.0000
2023-06-04T08:55:35.713Z,437.0000
2023-06-04T08:56:37.915Z,438.0000
2023-06-04T08:57:40.148Z,439.0000
2023-06-04T08:58:42.331Z,437.0000
2023-06-04T08:59:44.535Z,438.0000
2023-06-04T09:00:46.702Z,437.0000
2023-06-04T09:01:48.908Z,435.0000
2023-06-04T09:02:51.070Z,433.0000
2023-06-04T09:03:53.211Z,429.0000
2023-06-04T09:04:55.436Z,426.0000
2023-06-04T09:05:57.687Z,425.0000
2023-06-04T09:06:59.891Z,425.0000
2023-06-04T09:08:02.192Z,425.0000
2023-06-04T09:09:04.391Z,428.0000
2023-06-04T09:11:06.900Z,427.0000
2023-06-04T09:12:08.928Z,428.0000
2023-06-04T09:13:11.179Z,428.0000
2023-06-04T09:14:13.316Z,428.0000
2023-06-04T09:15:15.523Z,427.0000
2023-06-04T09:16:17.741Z,423.0000
2023-06-04T09:17:19.915Z,421.0000
2023-06-04T09:18:23.821Z,420.0000
2023-06-04T09:19:24.306Z,420.0000
2023-06-04T09:20:26.467Z,419.0000
2023-06-04T09:21:28.698Z,421.0000
2023-06-04T09:22:30.861Z,419.0000
2023-06-04T09:23:33.304Z,417.0000
2023-06-04T09:24:35.281Z,416.0000
2023-06-04T09:25:37.555Z,420.0000
2023-06-04T09:26:37.563Z,420.0000
2023-06-04T09:27:39.738Z,421.0000
2023-06-04T09:28:42.036Z,423.0000
2023-06-04T09:29:44.112Z,420.0000
2023-06-04T09:30:46.340Z,419.0000
2023-06-04T09:31:48.808Z,418.0000
2023-06-04T09:32:50.759Z,418.0000
2023-06-04T09:33:52.943Z,418.0000
2023-06-04T09:34:55.073Z,419.0000
2023-06-04T09:35:57.264Z,419.0000
2023-06-04T09:36:59.406Z,419.0000
2023-06-04T09:38:01.604Z,419.0000
2023-06-04T09:39:03.828Z,417.0000
2023-06-04T09:40:06.017Z,419.0000
2023-06-04T09:41:08.451Z,422.0000
2023-06-04T09:42:10.390Z,424.0000
2023-06-04T09:43:12.588Z,422.0000
2023-06-04T09:44:14.833Z,424.0000
2023-06-04T09:45:16.950Z,427.0000
2023-06-04T09:46:19.211Z,424.0000
2023-06-04T09:47:21.345Z,425.0000
2023-06-04T09:48:23.493Z,420.0000
2023-06-04T09:49:23.601Z,418.0000
2023-06-04T09:50:25.741Z,416.0000
2023-06-04T09:51:27.925Z,421.0000
2023-06-04T09:52:30.105Z,423.0000
2023-06-04T09:53:32.572Z,419.0000
2023-06-04T09:54:34.544Z,418.0000
2023-06-04T09:55:36.668Z,421.0000
2023-06-04T09:56:38.867Z,423.0000
2023-06-04T09:57:41.066Z,422.0000
2023-06-04T09:58:44.277Z,424.0000
2023-06-04T09:59:45.493Z,424.0000
2023-06-04T10:00:47.714Z,423.0000
2023-06-04T10:01:49.972Z,423.0000
2023-06-04T10:02:52.210Z,424.0000
2023-06-04T10:03:54.411Z,427.0000
2023-06-04T10:04:56.623Z,429.0000
2023-06-04T10:05:58.809Z,428.0000
2023-06-04T10:06:58.857Z,424.0000
2023-06-04T10:08:01.029Z,426.0000
2023-06-04T10:09:03.143Z,427.0000
2023-06-04T10:10:05.332Z,431.0000
2023-06-04T10:11:07.816Z,430.0000
2023-06-04T10:13:39.756Z,428.0000
2023-06-04T10:14:41.856Z,432.0000
2023-06-04T10:15:43.997Z,429.0000
2023-06-04T10:16:46.127Z,432.0000
2023-06-04T10:17:48.304Z,432.0000
2023-06-04T10:18:50.327Z,432.0000
2023-06-04T10:19:52.428Z,428.0000
2023-06-04T10:20:52.432Z,430.0000
2023-06-04T10:21:54.541Z,430.0000
2023-06-04T10:22:56.635Z,431.0000
2023-06-04T10:23:58.798Z,431.0000
2023-06-04T10:25:00.858Z,431.0000
2023-06-04T10:26:03.027Z,429.0000
2023-06-04T10:27:05.079Z,428.0000
2023-06-04T10:28:07.200Z,427.0000
2023-06-04T10:29:09.316Z,427.0000
2023-06-04T10:30:11.501Z,427.0000
2023-06-04T10:31:13.719Z,433.0000
2023-06-04T10:32:15.906Z,430.0000
2023-06-04T10:33:19.426Z,432.0000
2023-06-04T10:34:20.213Z,430.0000
2023-06-04T10:35:20.256Z,436.0000
2023-06-04T10:36:22.486Z,442.0000
2023-06-04T10:37:24.638Z,431.0000
2023-06-04T10:38:26.843Z,431.0000
2023-06-04T10:39:29.027Z,428.0000
2023-06-04T10:40:31.204Z,429.0000
2023-06-04T10:41:33.430Z,432.0000
2023-06-04T10:42:35.563Z,431.0000
2023-06-04T10:43:37.698Z,431.0000
2023-06-04T10:44:39.891Z,429.0000
2023-06-04T10:45:42.083Z,428.0000
2023-06-04T10:46:42.434Z,426.0000
2023-06-04T10:47:44.329Z,423.0000
2023-06-04T10:48:46.515Z,421.0000
2023-06-04T10:49:48.690Z,427.0000
2023-06-04T10:50:50.919Z,426.0000
2023-06-04T10:51:53.100Z,429.0000
2023-06-04T10:52:55.265Z,427.0000
2023-06-04T10:53:57.445Z,429.0000
2023-06-04T10:54:59.632Z,428.0000
2023-06-04T10:56:01.809Z,429.0000
2023-06-04T10:57:04.782Z,434.0000
2023-06-04T10:58:06.168Z,433.0000
2023-06-04T10:59:08.288Z,429.0000
2023-06-04T11:00:10.441Z,429.0000
2023-06-04T11:01:12.612Z,428.0000
2023-06-04T11:02:14.762Z,430.0000
2023-06-04T11:03:16.963Z,432.0000
2023-06-04T11:04:19.093Z,434.0000
2023-06-04T11:05:21.197Z,433.0000
2023-06-04T11:06:23.394Z,435.0000
2023-06-04T11:07:25.571Z,434.0000
2023-06-04T11:08:27.743Z,428.0000
2023-06-04T11:09:27.822Z,428.0000
2023-06-04T11:10:29.976Z,428.0000
2023-06-04T11:11:32.181Z,426.0000
2023-06-04T11:12:34.390Z,424.0000
2023-06-04T11:13:36.578Z,424.0000
2023-06-04T11:14:38.723Z,425.0000
2023-06-04T11:15:42.287Z,424.0000
2023-06-04T11:16:43.085Z,423.0000
2023-06-04T11:17:45.192Z,420.0000
2023-06-04T11:18:47.289Z,421.0000
2023-06-04T11:19:49.461Z,420.0000
2023-06-04T11:20:51.559Z,422.0000
2023-06-04T11:21:53.721Z,423.0000
2023-06-04T11:22:55.876Z,423.0000
2023-06-04T11:23:58.223Z,425.0000
2023-06-04T11:25:00.421Z,421.0000
2023-06-04T11:26:02.297Z,420.0000
2023-06-04T11:27:14.797Z,418.0000
2023-06-04T11:28:06.614Z,417.0000
2023-06-04T11:29:08.745Z,412.0000
2023-06-04T11:30:10.924Z,409.0000
2023-06-04T11:31:13.114Z,410.0000
2023-06-04T11:32:14.375Z,411.0000
2023-06-04T11:33:15.268Z,412.0000
2023-06-04T11:34:17.525Z,412.0000
2023-06-04T11:35:19.584Z,412.0000
2023-06-04T11:36:21.781Z,413.0000
2023-06-04T11:37:23.976Z,416.0000
2023-06-04T11:38:26.221Z,414.0000
2023-06-04T11:39:28.366Z,414.0000
2023-06-04T11:40:30.571Z,413.0000
2023-06-04T11:41:32.763Z,415.0000
2023-06-04T11:42:34.960Z,415.0000
2023-06-04T11:43:37.156Z,416.0000
2023-06-04T11:44:39.296Z,417.0000
2023-06-04T11:45:41.428Z,419.0000
2023-06-04T11:46:43.598Z,417.0000
2023-06-04T11:47:45.868Z,417.0000
2023-06-04T11:48:48.095Z,416.0000
2023-06-04T11:49:50.236Z,413.0000
2023-06-04T11:50:34.861Z,401.0000
2023-06-04T11:51:35.406Z,411.0000
2023-06-04T11:52:37.518Z,408.0000
2023-06-04T11:53:39.681Z,407.0000
2023-06-04T11:54:41.807Z,405.0000
2023-06-04T11:55:43.881Z,407.0000
2023-06-04T11:56:46.015Z,409.0000
2023-06-04T11:57:48.143Z,406.0000
2023-06-04T11:58:50.229Z,406.0000
2023-06-04T11:59:52.456Z,406.0000
2023-06-04T12:00:54.545Z,406.0000
2023-06-04T12:01:56.770Z,409.0000
2023-06-04T12:02:59.139Z,412.0000
2023-06-04T12:04:01.053Z,411.0000
2023-06-04T12:05:03.192Z,413.0000
2023-06-04T12:06:05.402Z,412.0000
2023-06-04T12:07:07.535Z,411.0000
2023-06-04T12:08:09.673Z,412.0000
2023-06-04T12:09:11.819Z,414.0000
2023-06-04T12:10:14.009Z,415.0000
2023-06-04T12:11:16.117Z,421.0000
2023-06-04T12:12:18.291Z,406.0000
2023-06-04T12:13:20.385Z,408.0000
2023-06-04T12:15:24.800Z,407.0000
2023-06-04T12:16:26.839Z,408.0000